createdAt,value
2022-09-04T00:00:12.477Z,94.79
2022-09-04T00:02:57.361Z,94.56
2022-09-04T00:05:29.723Z,94.70
2022-09-04T00:08:15.817Z,93.96
2022-09-04T00:10:50.642Z,94.60
2022-09-04T00:13:22.472Z,95.18
2022-09-04T00:15:57.031Z,94.96
2022-09-04T00:18:31.871Z,94.70
2022-09-04T00:21:07.501Z,95.31
2022-09-04T00:23:42.881Z,94.70
2022-09-04T00:26:20.915Z,94.83
2022-09-04T00:28:51.785Z,94.84
2022-09-04T00:31:29.028Z,95.12
2022-09-04T00:34:07.329Z,95.37
2022-09-04T00:36:39.978Z,95.14
2022-09-04T00:39:15.121Z,95.51
2022-09-04T00:42:00.807Z,95.45
2022-09-04T00:44:42.700Z,95.47
2022-09-04T00:47:27.002Z,95.06
2022-09-04T00:50:20.263Z,95.34
2022-09-04T00:53:02.632Z,95.71
2022-09-04T00:55:57.820Z,96.31
2022-09-04T00:58:40.596Z,96.16
2022-09-04T01:01:15.054Z,95.93
2022-09-04T01:04:02.270Z,96.13
2022-09-04T01:06:36.988Z,96.41
2022-09-04T01:09:32.099Z,95.99
2022-09-04T01:12:13.704Z,96.56
2022-09-04T01:14:49.107Z,96.58
2022-09-04T01:17:29.214Z,96.36
2022-09-04T01:20:04.654Z,96.75
2022-09-04T01:22:55.347Z,96.80
2022-09-04T01:25:53.839Z,96.22
2022-09-04T01:28:29.172Z,96.68
2022-09-04T01:31:05.262Z,96.38
2022-09-04T01:33:43.623Z,96.76
2022-09-04T01:36:20.750Z,96.80
2022-09-04T01:38:53.464Z,97.02
2022-09-04T01:41:28.612Z,97.26
2022-09-04T01:43:56.711Z,97.17
2022-09-04T01:46:52.450Z,97.31
2022-09-04T01:49:29.516Z,97.54
2022-09-04T01:52:07.213Z,97.18
2022-09-04T01:54:49.934Z,97.01
2022-09-04T01:57:32.879Z,96.74
2022-09-04T02:00:08.137Z,97.76
2022-09-04T02:02:52.913Z,96.98
2022-09-04T02:05:26.727Z,97.09
2022-09-04T02:08:06.244Z,97.28
2022-09-04T02:10:39.533Z,97.03
2022-09-04T02:13:17.715Z,96.72
2022-09-04T02:15:56.366Z,97.27
2022-09-04T02:18:36.086Z,96.87
2022-09-04T02:21:09.963Z,97.09
2022-09-04T02:23:46.392Z,96.68
2022-09-04T02:26:19.291Z,97.40
2022-09-04T02:29:01.081Z,97.73
2022-09-04T02:31:38.815Z,97.26
2022-09-04T02:34:10.757Z,98.00
2022-09-04T02:36:49.892Z,97.58
2022-09-04T02:39:33.484Z,98.15
2022-09-04T02:42:11.968Z,98.24
2022-09-04T02:44:47.784Z,98.20
2022-09-04T02:47:24.299Z,97.84
2022-09-04T02:50:02.845Z,98.06
2022-09-04T02:52:53.026Z,97.94
2022-09-04T02:55:39.910Z,97.96
2022-09-04T02:58:18.009Z,98.55
2022-09-04T03:00:55.778Z,98.54
2022-09-04T03:03:31.866Z,98.55
2022-09-04T03:06:05.622Z,98.29
2022-09-04T03:08:38.781Z,98.32
2022-09-04T03:11:16.831Z,98.85
2022-09-04T03:13:51.486Z,98.85
2022-09-04T03:16:28.024Z,98.67
2022-09-04T03:19:09.860Z,98.89
2022-09-04T03:21:44.563Z,98.88
2022-09-04T03:24:18.492Z,98.81
2022-09-04T03:26:50.780Z,98.83
2022-09-04T03:29:27.926Z,98.94
2022-09-04T03:32:16.052Z,98.33
2022-09-04T03:34:53.265Z,98.92
2022-09-04T03:37:38.505Z,97.72
2022-09-04T03:40:20.713Z,98.13
2022-09-04T03:43:02.083Z,97.67
2022-09-04T03:45:38.783Z,97.62
2022-09-04T03:48:20.405Z,97.81
2022-09-04T03:50:56.546Z,97.57
2022-09-04T03:53:31.326Z,97.92
2022-09-04T03:56:24.167Z,97.65
2022-09-04T03:59:03.103Z,98.05
2022-09-04T04:01:42.210Z,98.12
2022-09-04T04:04:37.491Z,98.73
2022-09-04T04:07:13.851Z,98.48
2022-09-04T04:09:53.842Z,98.47
2022-09-04T04:12:42.679Z,97.82
2022-09-04T04:15:31.983Z,98.03
2022-09-04T04:18:17.415Z,98.13
2022-09-04T04:20:57.011Z,97.41
2022-09-04T04:23:57.945Z,97.91
2022-09-04T04:26:40.628Z,98.10
2022-09-04T04:29:37.980Z,97.36
2022-09-04T04:32:24.277Z,97.70
2022-09-04T04:35:11.515Z,97.96
2022-09-04T04:37:51.691Z,97.32
2022-09-04T04:40:33.512Z,98.01
2022-09-04T04:43:14.836Z,98.25
2022-09-04T04:45:50.647Z,98.93
2022-09-04T04:49:07.874Z,98.99
2022-09-04T04:51:51.061Z,98.83
2022-09-04T04:54:35.792Z,98.14
2022-09-04T04:57:14.033Z,98.46
2022-09-04T04:59:49.594Z,98.26
2022-09-04T05:02:25.410Z,98.30
2022-09-04T05:05:02.323Z,98.72
2022-09-04T05:07:37.753Z,98.68
2022-09-04T05:10:19.576Z,98.65
2022-09-04T05:12:57.046Z,98.17
2022-09-04T05:15:31.255Z,98.56
2022-09-04T05:18:04.632Z,99.05
2022-09-04T05:20:43.755Z,98.57
2022-09-04T05:23:24.908Z,98.81
2022-09-04T05:26:07.529Z,98.60
2022-09-04T05:28:46.503Z,98.41
2022-09-04T05:31:23.291Z,98.64
2022-09-04T05:33:59.286Z,98.80
2022-09-04T05:36:37.673Z,98.60
2022-09-04T05:39:14.431Z,99.26
2022-09-04T05:42:04.481Z,99.12
2022-09-04T05:44:49.924Z,99.38
2022-09-04T05:47:30.807Z,99.05
2022-09-04T05:50:22.895Z,98.39
2022-09-04T05:53:14.093Z,98.25
2022-09-04T05:56:07.867Z,98.85
2022-09-04T05:59:02.617Z,99.22
2022-09-04T06:01:53.659Z,99.37
2022-09-04T06:04:57.003Z,99.21
2022-09-04T06:07:31.308Z,98.95
2022-09-04T06:10:04.414Z,99.24
2022-09-04T06:13:26.418Z,99.14
2022-09-04T06:16:13.807Z,99.78
2022-09-04T06:18:57.375Z,100.00
2022-09-04T06:21:55.352Z,99.69
2022-09-04T06:24:42.479Z,100.00
2022-09-04T06:27:34.529Z,100.00
2022-09-04T06:30:07.355Z,99.65
2022-09-04T06:32:53.399Z,99.93
2022-09-04T06:35:52.959Z,100.00
2022-09-04T06:38:37.541Z,100.00
2022-09-04T06:41:23.619Z,99.48
2022-09-04T06:44:01.112Z,99.97
2022-09-04T06:46:35.514Z,99.60
2022-09-04T06:49:13.220Z,99.88
2022-09-04T06:52:14.347Z,100.00
2022-09-04T06:54:58.462Z,100.00
2022-09-04T06:58:08.626Z,99.88
2022-09-04T07:00:43.241Z,99.90
2022-09-04T07:03:37.759Z,100.00
2022-09-04T07:06:25.572Z,100.00
2022-09-04T07:09:08.214Z,100.00
2022-09-04T07:11:55.098Z,100.00
2022-09-04T07:14:49.448Z,100.00
2022-09-04T07:17:24.623Z,100.00
2022-09-04T07:20:20.511Z,100.00
2022-09-04T07:23:23.783Z,100.00
2022-09-04T07:26:08.663Z,100.00
2022-09-04T07:28:54.853Z,100.00
2022-09-04T07:31:32.193Z,100.00
2022-09-04T07:34:10.239Z,100.00
2022-09-04T07:36:43.593Z,100.00
2022-09-04T07:39:21.719Z,100.00
2022-09-04T07:41:57.447Z,100.00
2022-09-04T07:44:33.035Z,100.00
2022-09-04T07:47:14.192Z,100.00
2022-09-04T07:49:53.786Z,100.00
2022-09-04T07:52:39.341Z,99.24
2022-09-04T07:55:17.887Z,99.05
2022-09-04T07:58:04.320Z,98.72
2022-09-04T08:00:40.570Z,99.09
2022-09-04T08:03:30.604Z,99.22
2022-09-04T08:06:05.974Z,99.87
2022-09-04T08:09:05.084Z,98.25
2022-09-04T08:11:55.014Z,98.94
2022-09-04T08:14:52.201Z,98.60
2022-09-04T08:17:43.061Z,98.59
2022-09-04T08:20:28.950Z,98.27
2022-09-04T08:23:04.496Z,98.49
2022-09-04T08:25:51.929Z,97.38
2022-09-04T08:28:38.929Z,96.70
2022-09-04T08:31:18.169Z,96.90
2022-09-04T08:34:07.542Z,97.04
2022-09-04T08:36:49.248Z,96.65
2022-09-04T08:39:29.093Z,96.61
2022-09-04T08:42:28.729Z,94.65
2022-09-04T08:45:44.488Z,94.52
2022-09-04T08:48:53.722Z,94.74
2022-09-04T08:52:03.209Z,94.57
2022-09-04T08:54:55.139Z,94.18
2022-09-04T08:57:53.298Z,93.98
2022-09-04T09:00:23.782Z,94.64
2022-09-04T09:03:36.138Z,94.63
2022-09-04T09:06:48.165Z,93.06
2022-09-04T09:09:50.643Z,93.28
2022-09-04T09:12:56.031Z,92.77
2022-09-04T09:15:43.150Z,93.60
2022-09-04T09:18:31.353Z,93.19
2022-09-04T09:21:08.193Z,92.89
2022-09-04T09:24:10.025Z,92.01
2022-09-04T09:26:52.451Z,92.45
2022-09-04T09:29:57.383Z,91.54
2022-09-04T09:33:01.576Z,91.81
2022-09-04T09:36:06.819Z,91.56
2022-09-04T09:39:02.690Z,91.05
2022-09-04T09:42:13.896Z,90.18
2022-09-04T09:45:12.827Z,90.96
2022-09-04T09:48:25.759Z,89.23
2022-09-04T09:51:13.914Z,90.78
2022-09-04T09:54:20.227Z,89.43
2022-09-04T09:57:33.435Z,87.98
2022-09-04T10:00:21.190Z,87.36
2022-09-04T10:03:26.470Z,87.21
2022-09-04T10:06:24.422Z,87.23
2022-09-04T10:09:18.519Z,85.96
2022-09-04T10:12:26.188Z,85.32
2022-09-04T10:15:35.289Z,84.08
2022-09-04T10:18:28.413Z,81.43
2022-09-04T10:21:26.526Z,79.15
2022-09-04T10:24:07.126Z,75.87
2022-09-04T10:27:08.505Z,73.76
2022-09-04T10:30:00.698Z,71.80
2022-09-04T10:32:58.360Z,71.27
2022-09-04T10:35:28.573Z,70.56
2022-09-04T10:38:27.337Z,67.83
2022-09-04T10:41:14.880Z,66.85
2022-09-04T10:44:03.451Z,65.46
2022-09-04T10:46:42.739Z,63.91
2022-09-04T10:49:41.823Z,64.06
2022-09-04T10:52:44.248Z,63.91
2022-09-04T10:55:21.493Z,62.96
2022-09-04T10:58:08.704Z,61.95
2022-09-04T11:00:51.079Z,61.50
2022-09-04T11:03:38.103Z,60.53
2022-09-04T11:06:39.231Z,58.81
2022-09-04T11:09:36.713Z,57.64
2022-09-04T11:12:49.296Z,57.33
2022-09-04T11:15:48.000Z,56.49
2022-09-04T11:18:45.637Z,55.99
2022-09-04T11:21:45.631Z,54.55
2022-09-04T11:24:44.279Z,54.90
2022-09-04T11:28:00.020Z,52.38
2022-09-04T11:30:48.092Z,52.95
2022-09-04T11:33:57.964Z,50.66
2022-09-04T11:36:52.675Z,51.73
2022-09-04T11:39:49.976Z,52.34
2022-09-04T11:42:32.921Z,53.34
2022-09-04T11:45:23.883Z,51.79
2022-09-04T11:48:09.801Z,53.75
2022-09-04T11:51:16.523Z,54.76
2022-09-04T11:54:10.459Z,53.91
2022-09-04T11:56:57.561Z,53.33
2022-09-04T12:00:05.925Z,52.95
2022-09-04T12:03:15.748Z,55.67
2022-09-04T12:05:56.165Z,53.33
2022-09-04T12:08:48.037Z,52.25
2022-09-04T12:11:39.890Z,52.50
2022-09-04T12:14:35.528Z,51.92
2022-09-04T12:17:25.391Z,52.57
2022-09-04T12:20:24.179Z,53.51
2022-09-04T12:23:13.819Z,53.29
2022-09-04T12:26:09.188Z,55.11
2022-09-04T12:29:17.188Z,56.00
2022-09-04T12:32:16.516Z,57.10
2022-09-04T12:35:06.812Z,57.51
2022-09-04T12:38:02.363Z,57.84
2022-09-04T12:40:35.507Z,58.41
2022-09-04T12:43:24.124Z,58.01
2022-09-04T12:46:05.938Z,56.65
2022-09-04T12:48:42.423Z,57.39
2022-09-04T12:51:13.940Z,56.72
2022-09-04T12:53:56.090Z,55.14
2022-09-04T12:56:41.397Z,56.18
2022-09-04T12:59:26.696Z,56.48
2022-09-04T13:02:04.830Z,55.65
2022-09-04T13:04:40.419Z,55.23
2022-09-04T13:07:24.277Z,54.77
2022-09-04T13:09:59.816Z,54.88
2022-09-04T13:12:39.202Z,54.95
2022-09-04T13:15:28.918Z,53.88
2022-09-04T13:18:10.504Z,53.76
2022-09-04T13:20:48.027Z,53.75
2022-09-04T13:23:36.901Z,54.94
2022-09-04T13:26:20.920Z,55.96
2022-09-04T13:28:58.272Z,56.74
2022-09-04T13:31:38.318Z,57.60
2022-09-04T13:34:18.835Z,56.30
2022-09-04T13:36:56.447Z,57.54
2022-09-04T13:39:54.374Z,57.88
2022-09-04T13:42:59.459Z,57.42
2022-09-04T13:45:29.270Z,57.03
2022-09-04T13:48:02.411Z,57.48
2022-09-04T13:50:36.967Z,58.20
2022-09-04T13:53:16.556Z,58.13
2022-09-04T13:55:50.391Z,58.30
2022-09-04T13:58:20.250Z,56.57
2022-09-04T14:00:52.799Z,55.01
2022-09-04T14:03:37.952Z,55.64
2022-09-04T14:06:11.130Z,55.46
2022-09-04T14:08:39.931Z,56.56
2022-09-04T14:11:39.306Z,56.62
2022-09-04T14:14:30.819Z,56.10
2022-09-04T14:17:00.018Z,57.76
2022-09-04T14:19:45.077Z,55.09
2022-09-04T14:22:35.064Z,54.44
2022-09-04T14:25:12.057Z,53.17
2022-09-04T14:27:48.482Z,53.34
2022-09-04T14:30:18.233Z,53.49
2022-09-04T14:33:19.718Z,54.46
2022-09-04T14:35:59.820Z,53.93
2022-09-04T14:38:54.360Z,53.34
2022-09-04T14:41:39.550Z,52.50
2022-09-04T14:44:20.401Z,52.64
2022-09-04T14:46:55.746Z,52.00
2022-09-04T14:49:27.389Z,52.45
2022-09-04T14:51:57.049Z,51.31
2022-09-04T14:54:30.076Z,50.54
2022-09-04T14:57:02.056Z,50.83
2022-09-04T14:59:35.487Z,50.69
2022-09-04T15:02:19.796Z,49.82
2022-09-04T15:04:51.497Z,50.56
2022-09-04T15:07:30.747Z,51.27
2022-09-04T15:10:15.087Z,52.14
2022-09-04T15:12:46.719Z,50.99
2022-09-04T15:15:21.194Z,50.86
2022-09-04T15:17:55.194Z,50.90
2022-09-04T15:20:27.587Z,50.64
2022-09-04T15:22:57.778Z,51.46
2022-09-04T15:25:59.181Z,51.72
2022-09-04T15:28:38.354Z,52.70
2022-09-04T15:31:15.946Z,51.95
2022-09-04T15:33:48.661Z,52.09
2022-09-04T15:36:20.147Z,51.73
2022-09-04T15:38:52.160Z,51.79
2022-09-04T15:41:28.693Z,52.77
2022-09-04T15:44:03.246Z,52.44
2022-09-04T15:46:46.281Z,52.04
2022-09-04T15:49:25.401Z,52.42
2022-09-04T15:51:57.942Z,52.46
2022-09-04T15:54:56.115Z,52.70
2022-09-04T15:57:36.014Z,51.75
2022-09-04T16:00:10.449Z,52.24
2022-09-04T16:02:54.859Z,52.78
2022-09-04T16:05:37.594Z,52.01
2022-09-04T16:08:20.912Z,52.41
2022-09-04T16:10:58.942Z,52.24
2022-09-04T16:13:41.675Z,52.79
2022-09-04T16:16:13.717Z,52.63
2022-09-04T16:18:52.186Z,52.64
2022-09-04T16:21:31.995Z,51.90
2022-09-04T16:24:13.477Z,52.51
2022-09-04T16:26:42.933Z,53.59
2022-09-04T16:29:25.803Z,53.94
2022-09-04T16:31:56.090Z,54.60
2022-09-04T16:34:27.687Z,54.50
2022-09-04T16:37:05.173Z,53.24
2022-09-04T16:39:43.012Z,54.09
2022-09-04T16:42:19.765Z,53.02
2022-09-04T16:44:58.542Z,52.15
2022-09-04T16:47:37.152Z,53.30
2022-09-04T16:50:16.871Z,54.01
2022-09-04T16:53:05.896Z,54.42
2022-09-04T16:55:45.816Z,54.23
2022-09-04T16:58:35.618Z,55.15
2022-09-04T17:01:15.418Z,55.02
2022-09-04T17:04:12.663Z,55.48
2022-09-04T17:07:02.619Z,57.31
2022-09-04T17:09:45.017Z,57.64
2022-09-04T17:12:23.620Z,58.18
2022-09-04T17:14:59.454Z,56.70
2022-09-04T17:17:32.269Z,56.40
2022-09-04T17:20:09.370Z,57.56
2022-09-04T17:28:32.761Z,54.86
2022-09-04T17:29:12.860Z,56.33
2022-09-04T17:29:14.175Z,57.59
2022-09-04T17:31:45.921Z,58.32
2022-09-04T17:39:57.329Z,57.20
2022-09-04T17:40:49.876Z,56.90
2022-09-04T17:40:56.107Z,56.67
2022-09-04T17:43:22.723Z,56.59
2022-09-04T17:46:02.192Z,56.78
2022-09-04T17:48:33.246Z,57.09
2022-09-04T17:51:05.522Z,59.26
2022-09-04T17:53:38.795Z,59.38
2022-09-04T17:56:14.921Z,60.36
2022-09-04T17:58:50.386Z,61.02
2022-09-04T18:01:25.125Z,61.83
2022-09-04T18:04:21.845Z,61.91
2022-09-04T18:06:58.705Z,62.15
2022-09-04T18:09:33.040Z,62.76
2022-09-04T18:12:11.090Z,62.17
2022-09-04T18:14:48.404Z,62.05
2022-09-04T18:17:36.367Z,62.87
2022-09-04T18:20:14.292Z,62.70
2022-09-04T18:23:18.077Z,62.33
2022-09-04T18:25:53.983Z,62.84
2022-09-04T18:28:28.404Z,62.47
2022-09-04T18:37:11.833Z,63.41
2022-09-04T18:37:24.339Z,63.05
2022-09-04T18:37:27.099Z,63.67
2022-09-04T18:39:53.033Z,64.05
2022-09-04T18:50:23.089Z,64.18
2022-09-04T18:50:34.957Z,65.03
2022-09-04T18:50:50.777Z,65.13
2022-09-04T18:51:21.120Z,65.18
2022-09-04T18:53:53.850Z,65.58
2022-09-04T18:56:28.600Z,65.70
2022-09-04T18:59:05.303Z,65.91
2022-09-04T19:01:42.145Z,66.42
2022-09-04T19:04:43.615Z,66.40
2022-09-04T19:07:18.716Z,66.81
2022-09-04T19:10:08.775Z,66.58
2022-09-04T19:12:48.063Z,67.75
2022-09-04T19:15:45.102Z,69.03
2022-09-04T19:18:25.488Z,69.15
2022-09-04T19:20:59.187Z,69.34
2022-09-04T19:23:35.580Z,69.69
2022-09-04T19:26:10.250Z,69.66
2022-09-04T19:28:52.715Z,69.55
2022-09-04T19:31:30.043Z,70.26
2022-09-04T19:34:03.155Z,69.95
2022-09-04T19:36:38.110Z,72.74
2022-09-04T19:45:57.804Z,76.02
2022-09-04T19:45:59.057Z,77.60
2022-09-04T19:46:08.070Z,75.90
2022-09-04T19:48:23.533Z,78.06
2022-09-04T19:53:21.952Z,77.92
2022-09-04T19:53:52.930Z,75.77
2022-09-04T19:56:28.886Z,76.35
2022-09-04T19:59:03.453Z,76.92
2022-09-04T20:01:45.823Z,76.05
2022-09-04T20:04:26.053Z,76.71
2022-09-04T20:06:59.216Z,77.25
2022-09-04T20:09:33.061Z,78.35
2022-09-04T20:12:10.282Z,78.31
2022-09-04T20:14:43.415Z,78.81
2022-09-04T20:17:28.395Z,79.08
2022-09-04T20:20:00.795Z,78.04
2022-09-04T20:22:36.257Z,78.88
2022-09-04T20:25:33.182Z,77.63
2022-09-04T20:28:15.140Z,78.68
2022-09-04T20:30:49.447Z,78.57
2022-09-04T20:33:22.610Z,79.23
2022-09-04T20:35:59.646Z,78.02
2022-09-04T20:38:36.013Z,79.22
2022-09-04T20:41:11.816Z,80.20
2022-09-04T20:43:55.010Z,79.08
2022-09-04T20:52:44.664Z,78.52
2022-09-04T20:52:55.881Z,78.58
2022-09-04T20:52:57.782Z,77.63
2022-09-04T20:55:46.212Z,76.35
2022-09-04T21:03:09.575Z,76.29
2022-09-04T21:03:18.287Z,78.10
2022-09-04T21:04:43.746Z,79.80
2022-09-04T21:07:23.871Z,79.25
2022-09-04T21:10:05.905Z,80.01
2022-09-04T21:12:40.341Z,80.71
2022-09-04T21:15:13.862Z,81.03
2022-09-04T21:18:18.075Z,80.81
2022-09-04T21:21:00.757Z,80.45
2022-09-04T21:24:03.437Z,80.67
2022-09-04T21:26:59.667Z,81.32
2022-09-04T21:29:42.283Z,80.89
2022-09-04T21:32:29.881Z,81.75
2022-09-04T21:35:07.648Z,82.99
2022-09-04T21:37:47.268Z,83.51
2022-09-04T21:40:51.711Z,83.21
2022-09-04T21:43:51.022Z,83.26
2022-09-04T21:46:36.538Z,82.85
2022-09-04T21:49:26.439Z,82.93
2022-09-04T21:52:10.870Z,83.12
2022-09-04T21:57:08.937Z,83.58
2022-09-04T22:02:31.849Z,83.98
2022-09-04T22:02:37.027Z,83.82
2022-09-04T22:04:14.195Z,84.30
2022-09-04T22:10:59.137Z,83.36
2022-09-04T22:13:37.507Z,83.74
2022-09-04T22:13:40.446Z,83.99
2022-09-04T22:16:26.027Z,84.12
2022-09-04T22:19:26.070Z,83.90
2022-09-04T22:22:09.197Z,83.17
2022-09-04T22:25:07.553Z,82.21
2022-09-04T22:28:08.232Z,83.27
2022-09-04T22:30:50.282Z,83.60
2022-09-04T22:34:15.606Z,82.94
2022-09-04T22:37:08.354Z,82.62
2022-09-04T22:40:01.017Z,82.67
2022-09-04T22:42:44.809Z,83.15
2022-09-04T22:45:45.527Z,83.15
2022-09-04T22:48:44.050Z,83.03
2022-09-04T22:51:30.011Z,83.41
2022-09-04T22:54:24.687Z,83.25
2022-09-04T22:56:55.887Z,83.96
2022-09-04T22:59:53.694Z,84.26
2022-09-04T23:03:06.660Z,83.43
2022-09-04T23:05:48.834Z,84.02
2022-09-04T23:13:44.816Z,84.35
2022-09-04T23:13:59.444Z,85.24
2022-09-04T23:14:38.644Z,85.16
2022-09-04T23:17:42.040Z,85.06
2022-09-04T23:26:36.739Z,85.46
2022-09-04T23:26:47.999Z,85.59
2022-09-04T23:27:20.318Z,85.27
2022-09-04T23:30:08.133Z,85.52
2022-09-04T23:33:32.121Z,84.56
2022-09-04T23:36:07.049Z,84.93
2022-09-04T23:39:01.519Z,85.03
2022-09-04T23:41:52.672Z,85.15
2022-09-04T23:44:50.802Z,84.54
2022-09-04T23:47:47.823Z,84.92
2022-09-04T23:50:31.137Z,84.91
2022-09-04T23:53:10.225Z,85.07
2022-09-04T23:55:52.019Z,84.81
2022-09-04T23:58:51.817Z,84.70
